createdAt,value
2022-11-24T00:01:27.289Z,4.67
2022-11-24T00:04:11.995Z,4.62
2022-11-24T00:06:56.819Z,4.64
2022-11-24T00:09:41.512Z,4.70
2022-11-24T00:12:26.349Z,4.82
2022-11-24T00:15:10.902Z,4.90
2022-11-24T00:17:55.793Z,4.91
2022-11-24T00:20:40.492Z,4.91
2022-11-24T00:23:25.354Z,4.73
2022-11-24T00:26:10.075Z,4.61
2022-11-24T00:28:54.852Z,4.67
2022-11-24T00:31:39.738Z,4.68
2022-11-24T00:34:24.392Z,4.66
2022-11-24T00:37:09.298Z,4.62
2022-11-24T00:39:54.115Z,4.56
2022-11-24T00:42:39.021Z,4.54
2022-11-24T00:45:23.736Z,4.50
2022-11-24T00:48:08.529Z,4.38
2022-11-24T00:50:53.245Z,4.25
2022-11-24T00:53:38.046Z,4.10
2022-11-24T00:56:24.005Z,4.14
2022-11-24T00:59:08.797Z,4.09
2022-11-24T01:01:53.583Z,4.17
2022-11-24T01:04:38.220Z,4.19
2022-11-24T01:07:22.864Z,4.16
2022-11-24T01:10:07.621Z,4.02
2022-11-24T01:12:52.388Z,3.90
2022-11-24T01:15:37.244Z,3.94
2022-11-24T01:18:22.532Z,4.11
2022-11-24T01:21:10.274Z,4.19
2022-11-24T01:23:55.067Z,4.19
2022-11-24T01:26:39.799Z,4.11
2022-11-24T01:29:24.578Z,4.09
2022-11-24T01:32:09.349Z,4.04
2022-11-24T01:34:53.978Z,4.05
2022-11-24T01:37:39.090Z,4.21
2022-11-24T01:40:23.849Z,4.34
2022-11-24T01:43:08.574Z,4.35
2022-11-24T01:45:53.476Z,4.30
2022-11-24T01:48:38.647Z,4.45
2022-11-24T01:51:23.539Z,4.50
2022-11-24T01:54:08.245Z,4.57
2022-11-24T01:56:52.984Z,4.55
2022-11-24T01:59:37.569Z,4.60
2022-11-24T02:02:22.484Z,4.56
2022-11-24T02:05:07.151Z,4.49
2022-11-24T02:07:52.063Z,4.35
2022-11-24T02:10:37.329Z,4.26
2022-11-24T02:13:22.107Z,4.25
2022-11-24T02:16:06.910Z,4.30
2022-11-24T02:18:51.575Z,4.26
2022-11-24T02:21:36.318Z,4.32
2022-11-24T02:24:21.174Z,4.33
2022-11-24T02:27:05.904Z,4.30
2022-11-24T02:29:50.688Z,4.30
2022-11-24T02:32:35.387Z,4.48
2022-11-24T02:35:20.138Z,4.59
2022-11-24T02:38:04.909Z,4.62
2022-11-24T02:40:49.666Z,4.67
2022-11-24T02:43:34.391Z,4.66
2022-11-24T02:46:19.308Z,4.67
2022-11-24T02:49:03.895Z,4.66
2022-11-24T02:51:48.729Z,4.73
2022-11-24T02:54:33.728Z,4.76
2022-11-24T02:57:18.826Z,4.80
2022-11-24T03:00:03.527Z,4.65
2022-11-24T03:02:48.322Z,4.53
2022-11-24T03:05:33.116Z,4.43
2022-11-24T03:08:17.752Z,4.43
2022-11-24T03:11:02.615Z,4.45
2022-11-24T03:13:47.224Z,4.47
2022-11-24T03:16:31.995Z,4.50
2022-11-24T03:19:16.681Z,4.60
2022-11-24T03:22:01.540Z,4.62
2022-11-24T03:24:46.173Z,4.61
2022-11-24T03:27:30.894Z,4.66
2022-11-24T03:30:15.539Z,4.62
2022-11-24T03:33:00.381Z,4.49
2022-11-24T03:35:45.131Z,4.47
2022-11-24T03:38:29.921Z,4.47
2022-11-24T03:41:14.684Z,4.40
2022-11-24T03:43:59.430Z,4.43
2022-11-24T03:46:44.290Z,4.41
2022-11-24T03:49:28.973Z,4.41
2022-11-24T03:52:13.644Z,4.29
2022-11-24T03:54:58.274Z,4.20
2022-11-24T03:57:43.057Z,4.18
2022-11-24T04:00:27.824Z,4.21
2022-11-24T04:03:12.650Z,4.23
2022-11-24T04:05:57.335Z,4.12
2022-11-24T04:08:42.077Z,3.99
2022-11-24T04:11:26.855Z,3.93
2022-11-24T04:14:13.795Z,3.94
2022-11-24T04:16:58.907Z,3.99
2022-11-24T04:19:43.457Z,4.00
2022-11-24T04:22:28.147Z,3.95
2022-11-24T04:25:12.833Z,4.03
2022-11-24T04:27:57.645Z,3.97
2022-11-24T04:30:42.502Z,4.04
2022-11-24T04:33:27.188Z,4.12
2022-11-24T04:36:12.009Z,4.11
2022-11-24T04:39:24.378Z,4.04
2022-11-24T04:42:01.649Z,3.99
2022-11-24T04:44:46.343Z,4.16
2022-11-24T04:47:31.088Z,4.05
2022-11-24T04:50:15.890Z,4.07
2022-11-24T04:53:00.592Z,4.10
2022-11-24T04:55:45.324Z,4.12
2022-11-24T04:58:29.959Z,4.15
2022-11-24T05:01:14.885Z,4.20
2022-11-24T05:03:59.422Z,4.01
2022-11-24T05:06:44.171Z,3.92
2022-11-24T05:09:41.949Z,3.91
2022-11-24T05:12:33.634Z,4.02
2022-11-24T05:15:18.416Z,4.03
2022-11-24T05:18:03.228Z,4.05
2022-11-24T05:20:48.020Z,4.12
2022-11-24T05:23:32.803Z,4.14
2022-11-24T05:26:17.591Z,4.28
2022-11-24T05:29:02.559Z,4.32
2022-11-24T05:31:47.322Z,4.41
2022-11-24T05:34:32.766Z,4.35
2022-11-24T05:37:17.756Z,4.38
2022-11-24T05:40:02.582Z,4.30
2022-11-24T05:42:48.333Z,4.24
2022-11-24T05:45:33.605Z,4.29
2022-11-24T05:48:18.490Z,4.24
2022-11-24T05:51:07.877Z,4.12
2022-11-24T05:53:53.935Z,4.02
2022-11-24T05:56:38.757Z,4.03
2022-11-24T05:59:23.524Z,4.18
2022-11-24T06:02:08.577Z,4.31
2022-11-24T06:04:53.532Z,4.31
2022-11-24T06:07:38.492Z,4.39
2022-11-24T06:10:23.294Z,4.34
2022-11-24T06:13:08.117Z,4.26
2022-11-24T06:15:53.300Z,4.23
2022-11-24T06:18:38.223Z,4.25
2022-11-24T06:21:23.032Z,4.30
2022-11-24T06:24:07.709Z,4.16
2022-11-24T06:26:52.602Z,4.11
2022-11-24T06:29:37.383Z,4.18
2022-11-24T06:32:22.125Z,4.30
2022-11-24T06:35:06.875Z,4.36
2022-11-24T06:37:51.661Z,4.60
2022-11-24T06:40:36.380Z,4.65
2022-11-24T06:43:21.342Z,4.65
2022-11-24T06:46:06.061Z,4.81
2022-11-24T06:48:50.745Z,4.72
2022-11-24T06:51:36.839Z,4.72
2022-11-24T06:54:21.660Z,4.70
2022-11-24T06:57:06.404Z,4.62
2022-11-24T06:59:51.105Z,4.57
2022-11-24T07:02:37.320Z,4.48
2022-11-24T07:05:24.788Z,4.42
2022-11-24T07:08:14.612Z,4.37
2022-11-24T07:11:02.358Z,4.40
2022-11-24T07:13:47.103Z,4.35
2022-11-24T07:16:31.935Z,4.35
2022-11-24T07:19:21.612Z,4.30
2022-11-24T07:22:09.348Z,4.23
2022-11-24T07:24:54.031Z,4.33
2022-11-24T07:27:38.770Z,4.47
2022-11-24T07:30:23.512Z,4.55
2022-11-24T07:33:08.267Z,4.54
2022-11-24T07:35:53.130Z,4.59
2022-11-24T07:38:37.963Z,4.54
2022-11-24T07:41:22.852Z,4.64
2022-11-24T07:44:07.657Z,4.71
2022-11-24T07:46:52.352Z,4.82
2022-11-24T07:49:37.094Z,4.98
2022-11-24T07:52:21.761Z,5.13
2022-11-24T07:55:06.443Z,5.34
2022-11-24T07:57:51.212Z,5.38
2022-11-24T08:00:36.062Z,5.37
2022-11-24T08:03:20.800Z,5.45
2022-11-24T08:06:24.127Z,5.54
2022-11-24T08:09:10.453Z,5.64
2022-11-24T08:11:55.235Z,5.80
2022-11-24T08:14:40.101Z,5.97
2022-11-24T08:17:24.845Z,6.09
2022-11-24T08:20:09.756Z,6.23
2022-11-24T08:22:54.700Z,6.31
2022-11-24T08:25:39.843Z,6.41
2022-11-24T08:28:24.658Z,6.67
2022-11-24T08:31:09.578Z,6.72
2022-11-24T08:33:54.330Z,6.72
2022-11-24T08:36:39.267Z,6.77
2022-11-24T08:39:24.050Z,6.97
2022-11-24T08:42:08.768Z,6.94
2022-11-24T08:44:58.861Z,7.07
2022-11-24T08:47:43.884Z,7.08
2022-11-24T08:50:28.623Z,7.16
2022-11-24T08:53:13.433Z,7.17
2022-11-24T08:55:58.232Z,7.20
2022-11-24T08:58:43.015Z,7.19
2022-11-24T09:01:28.224Z,7.29
2022-11-24T09:04:13.366Z,7.37
2022-11-24T09:06:58.021Z,7.47
2022-11-24T09:09:42.828Z,7.54
2022-11-24T09:12:27.549Z,7.65
2022-11-24T09:15:12.452Z,7.80
2022-11-24T09:17:57.258Z,7.82
2022-11-24T09:20:42.040Z,7.82
2022-11-24T09:23:26.955Z,7.87
2022-11-24T09:26:11.612Z,8.24
2022-11-24T09:28:56.458Z,8.42
2022-11-24T09:31:41.294Z,7.91
2022-11-24T09:34:26.031Z,7.72
2022-11-24T09:37:10.848Z,7.75
2022-11-24T09:39:55.661Z,7.79
2022-11-24T09:42:40.424Z,7.73
2022-11-24T09:45:48.917Z,7.60
2022-11-24T09:48:30.339Z,7.72
2022-11-24T09:51:14.964Z,7.81
2022-11-24T09:53:59.842Z,7.95
2022-11-24T09:56:44.670Z,8.10
2022-11-24T09:59:29.522Z,8.30
2022-11-24T10:02:14.231Z,8.45
2022-11-24T10:04:59.101Z,8.42
2022-11-24T10:07:44.458Z,8.27
2022-11-24T10:10:29.491Z,8.03
2022-11-24T10:13:14.268Z,8.07
2022-11-24T10:15:59.019Z,8.23
2022-11-24T10:18:44.404Z,8.21
2022-11-24T10:21:29.226Z,8.18
2022-11-24T10:24:14.027Z,8.05
2022-11-24T10:26:58.875Z,7.86
2022-11-24T10:29:43.598Z,7.85
2022-11-24T10:32:28.375Z,7.90
2022-11-24T10:35:13.075Z,8.00
2022-11-24T10:37:57.838Z,8.05
2022-11-24T10:40:56.999Z,8.10
2022-11-24T10:43:42.590Z,8.23
2022-11-24T10:46:27.543Z,8.39
2022-11-24T10:49:12.807Z,8.64
2022-11-24T10:51:57.540Z,8.63
2022-11-24T10:54:42.225Z,8.65
2022-11-24T10:57:27.033Z,8.65
2022-11-24T11:00:11.756Z,8.65
2022-11-24T11:02:56.543Z,8.50
2022-11-24T11:05:41.789Z,8.53
2022-11-24T11:08:26.466Z,8.52
2022-11-24T11:11:11.080Z,8.46
2022-11-24T11:14:02.948Z,8.44
2022-11-24T11:16:48.673Z,8.54
2022-11-24T11:19:48.429Z,8.56
2022-11-24T11:22:33.880Z,8.75
2022-11-24T11:25:18.572Z,8.92
2022-11-24T11:28:08.597Z,8.97
2022-11-24T11:34:04.628Z,8.91
2022-11-24T11:36:51.234Z,8.98
2022-11-24T11:39:36.043Z,8.95
2022-11-24T11:42:45.364Z,8.97
2022-11-24T11:45:25.591Z,8.84
2022-11-24T11:48:10.407Z,8.87
2022-11-24T11:54:00.628Z,8.85
2022-11-24T11:56:45.718Z,8.67
2022-11-24T11:59:30.573Z,8.63
2022-11-24T12:02:15.345Z,8.54
2022-11-24T12:05:00.058Z,8.48
2022-11-24T12:07:44.865Z,8.42
2022-11-24T12:10:29.466Z,8.53
2022-11-24T12:13:14.287Z,8.68
2022-11-24T12:15:58.886Z,8.68
2022-11-24T12:18:59.299Z,8.69
2022-11-24T12:21:44.486Z,8.62
2022-11-24T12:24:29.201Z,8.61
2022-11-24T12:27:16.755Z,8.73
2022-11-24T12:30:06.162Z,8.91
2022-11-24T12:32:50.881Z,9.01
2022-11-24T12:35:35.621Z,8.98
2022-11-24T12:38:20.314Z,8.95
2022-11-24T12:41:39.904Z,9.03
2022-11-24T12:44:09.920Z,9.06
2022-11-24T12:46:54.784Z,9.18
2022-11-24T12:49:39.992Z,9.17
2022-11-24T12:52:24.765Z,9.18
2022-11-24T12:55:09.716Z,9.13
2022-11-24T12:57:54.432Z,9.10
2022-11-24T13:00:39.181Z,9.04
2022-11-24T13:03:23.981Z,9.01
2022-11-24T13:06:08.714Z,8.98
2022-11-24T13:08:53.384Z,8.95
2022-11-24T13:11:38.279Z,8.86
2022-11-24T13:14:22.947Z,8.80
2022-11-24T13:17:30.047Z,8.75
2022-11-24T13:20:12.748Z,8.85
2022-11-24T13:22:57.410Z,8.97
2022-11-24T13:25:42.147Z,9.09
2022-11-24T13:28:53.959Z,9.15
2022-11-24T13:31:31.817Z,9.26
2022-11-24T13:34:16.539Z,9.28
2022-11-24T13:37:28.927Z,9.29
2022-11-24T13:40:06.109Z,9.32
2022-11-24T13:42:50.916Z,9.23
2022-11-24T13:45:35.546Z,9.08
2022-11-24T13:48:20.774Z,9.01
2022-11-24T13:51:05.953Z,8.97
2022-11-24T13:53:50.756Z,8.86
2022-11-24T13:56:35.701Z,8.71
2022-11-24T13:59:20.483Z,8.60
2022-11-24T14:02:05.311Z,8.46
2022-11-24T14:04:50.113Z,8.38
2022-11-24T14:07:34.811Z,8.33
2022-11-24T14:10:19.949Z,8.41
2022-11-24T14:13:04.834Z,8.42
2022-11-24T14:15:49.494Z,8.42
2022-11-24T14:18:34.190Z,8.38
2022-11-24T14:21:18.896Z,8.27
2022-11-24T14:24:03.484Z,8.10
2022-11-24T14:26:48.238Z,8.05
2022-11-24T14:29:32.920Z,7.90
2022-11-24T14:32:17.710Z,7.97
2022-11-24T14:35:02.464Z,7.91
2022-11-24T14:37:47.132Z,7.93
2022-11-24T14:40:31.911Z,7.90
2022-11-24T14:43:16.743Z,7.88
2022-11-24T14:46:01.454Z,7.85
2022-11-24T14:48:46.243Z,7.80
2022-11-24T14:51:31.019Z,7.72
2022-11-24T14:54:15.692Z,7.59
2022-11-24T14:57:00.370Z,7.55
2022-11-24T14:59:45.079Z,7.55
2022-11-24T15:02:30.103Z,7.39
2022-11-24T15:05:14.820Z,7.37
2022-11-24T15:07:59.723Z,7.32
2022-11-24T15:10:44.378Z,7.31
2022-11-24T15:13:29.083Z,7.36
2022-11-24T15:16:13.859Z,7.34
2022-11-24T15:18:58.762Z,7.41
2022-11-24T15:21:43.373Z,7.37
2022-11-24T15:24:28.269Z,7.29
2022-11-24T15:27:13.004Z,7.22
2022-11-24T15:29:57.659Z,7.19
2022-11-24T15:32:42.388Z,7.12
2022-11-24T15:35:27.100Z,7.10
2022-11-24T15:38:11.867Z,7.09
2022-11-24T15:40:56.633Z,7.01
2022-11-24T15:43:41.590Z,6.87
2022-11-24T15:46:26.341Z,6.82
2022-11-24T15:49:11.102Z,6.83
2022-11-24T15:51:55.760Z,6.77
2022-11-24T15:54:40.559Z,6.69
2022-11-24T15:57:25.360Z,6.54
2022-11-24T16:00:10.160Z,6.31
2022-11-24T16:02:54.943Z,6.20
2022-11-24T16:05:39.659Z,6.12
2022-11-24T16:08:24.457Z,6.07
2022-11-24T16:11:09.110Z,6.04
2022-11-24T16:13:54.617Z,6.09
2022-11-24T16:16:39.879Z,6.04
2022-11-24T16:19:25.222Z,6.03
2022-11-24T16:22:09.868Z,6.12
2022-11-24T16:24:54.724Z,6.13
2022-11-24T16:27:39.695Z,6.03
2022-11-24T16:30:24.382Z,5.98
2022-11-24T16:33:09.131Z,6.13
2022-11-24T16:35:53.856Z,6.22
2022-11-24T16:38:38.659Z,6.22
2022-11-24T16:41:23.290Z,6.19
2022-11-24T16:44:08.050Z,6.22
2022-11-24T16:46:52.843Z,6.26
2022-11-24T16:49:37.581Z,6.38
2022-11-24T16:52:22.289Z,6.42
2022-11-24T16:55:07.009Z,6.42
2022-11-24T16:57:51.877Z,6.43
2022-11-24T17:00:36.552Z,6.44
2022-11-24T17:03:21.351Z,6.36
2022-11-24T17:06:06.050Z,6.34
2022-11-24T17:08:50.987Z,6.27
2022-11-24T17:11:35.768Z,6.45
2022-11-24T17:14:20.755Z,6.50
2022-11-24T17:17:05.704Z,6.55
2022-11-24T17:19:50.677Z,6.53
2022-11-24T17:22:35.577Z,6.51
2022-11-24T17:25:20.292Z,6.51
2022-11-24T17:28:05.107Z,6.54
2022-11-24T17:30:49.807Z,6.51
2022-11-24T17:33:34.618Z,6.38
2022-11-24T17:36:19.670Z,6.35
2022-11-24T17:39:04.416Z,6.41
2022-11-24T17:41:49.130Z,6.37
2022-11-24T17:44:34.044Z,6.28
2022-11-24T17:47:19.253Z,6.23
2022-11-24T17:50:04.026Z,6.27
2022-11-24T17:52:48.794Z,6.28
2022-11-24T17:55:33.491Z,6.37
2022-11-24T17:58:18.282Z,6.38
2022-11-24T18:01:02.968Z,6.37
2022-11-24T18:03:53.150Z,6.42
2022-11-24T18:06:38.730Z,6.45
2022-11-24T18:09:23.484Z,6.41
2022-11-24T18:12:08.266Z,6.41
2022-11-24T18:14:52.882Z,6.41
2022-11-24T18:17:37.666Z,6.26
2022-11-24T18:20:22.458Z,6.18
2022-11-24T18:23:07.399Z,6.16
2022-11-24T18:25:52.176Z,6.09
2022-11-24T18:28:36.996Z,6.08
2022-11-24T18:31:21.745Z,6.05
2022-11-24T18:34:06.432Z,6.03
2022-11-24T18:36:51.288Z,6.08
2022-11-24T18:39:36.000Z,6.05
2022-11-24T18:42:20.710Z,5.98
2022-11-24T18:45:05.293Z,5.98
2022-11-24T18:47:50.062Z,5.95
2022-11-24T18:50:34.584Z,5.89
2022-11-24T18:53:19.323Z,5.84
2022-11-24T18:56:04.041Z,5.82
2022-11-24T18:58:49.125Z,5.81
2022-11-24T19:01:33.867Z,5.84
2022-11-24T19:04:19.016Z,5.86
2022-11-24T19:07:03.742Z,5.90
2022-11-24T19:09:48.451Z,5.89
2022-11-24T19:12:33.190Z,5.87
2022-11-24T19:15:17.899Z,5.87
2022-11-24T19:18:02.671Z,5.82
2022-11-24T19:20:47.447Z,5.83
2022-11-24T19:23:32.377Z,5.84
2022-11-24T19:26:17.046Z,5.83
2022-11-24T19:29:01.808Z,5.75
2022-11-24T19:31:46.673Z,5.75
2022-11-24T19:34:31.475Z,5.78
2022-11-24T19:37:16.325Z,5.75
2022-11-24T19:40:00.982Z,5.69
2022-11-24T19:42:45.766Z,5.84
2022-11-24T19:45:30.397Z,5.89
2022-11-24T19:48:15.564Z,5.84
2022-11-24T19:51:00.221Z,5.87
2022-11-24T19:53:44.988Z,5.87
2022-11-24T19:56:29.832Z,5.93
2022-11-24T19:59:14.590Z,5.91
2022-11-24T20:01:59.744Z,5.95
2022-11-24T20:04:44.758Z,5.98
2022-11-24T20:07:29.682Z,5.97
2022-11-24T20:10:14.770Z,6.05
2022-11-24T20:12:59.618Z,6.04
2022-11-24T20:15:44.325Z,6.01
2022-11-24T20:18:28.944Z,5.99
2022-11-24T20:21:13.689Z,6.00
2022-11-24T20:23:58.382Z,5.99
2022-11-24T20:26:43.270Z,5.90
2022-11-24T20:29:28.008Z,5.88
2022-11-24T20:32:12.918Z,5.90
2022-11-24T20:34:57.804Z,5.98
2022-11-24T20:37:42.630Z,5.94
2022-11-24T20:40:27.357Z,5.90
2022-11-24T20:43:12.208Z,5.85
2022-11-24T20:45:57.008Z,5.92
2022-11-24T20:48:41.774Z,5.98
2022-11-24T20:51:26.469Z,6.02
2022-11-24T20:54:11.229Z,6.05
2022-11-24T20:56:56.119Z,6.07
2022-11-24T20:59:40.985Z,6.07
2022-11-24T21:02:25.887Z,5.90
2022-11-24T21:05:10.527Z,5.85
2022-11-24T21:07:55.537Z,5.85
2022-11-24T21:10:40.219Z,5.83
2022-11-24T21:13:25.004Z,5.81
2022-11-24T21:16:09.879Z,5.69
2022-11-24T21:18:54.987Z,5.71
2022-11-24T21:21:39.642Z,5.71
2022-11-24T21:24:24.400Z,5.75
2022-11-24T21:27:09.379Z,5.79
2022-11-24T21:29:54.055Z,5.84
2022-11-24T21:32:38.946Z,5.87
2022-11-24T21:35:23.754Z,5.84
2022-11-24T21:38:08.618Z,5.87
2022-11-24T21:40:53.376Z,5.90
2022-11-24T21:43:38.167Z,5.89
2022-11-24T21:46:22.944Z,5.92
2022-11-24T21:49:07.664Z,5.90
2022-11-24T21:51:52.481Z,5.96
2022-11-24T21:54:37.524Z,5.86
2022-11-24T21:57:22.553Z,5.85
2022-11-24T22:00:07.227Z,5.93
2022-11-24T22:02:52.112Z,5.96
2022-11-24T22:05:36.960Z,6.00
2022-11-24T22:08:21.813Z,5.96
2022-11-24T22:11:06.608Z,5.93
2022-11-24T22:13:51.518Z,5.93
2022-11-24T22:16:36.230Z,5.97
2022-11-24T22:19:21.007Z,6.00
2022-11-24T22:22:05.792Z,6.02
2022-11-24T22:24:50.496Z,6.02
2022-11-24T22:27:35.305Z,5.97
2022-11-24T22:30:20.050Z,5.95
2022-11-24T22:33:04.859Z,6.02
2022-11-24T22:35:49.434Z,6.06
2022-11-24T22:38:34.319Z,6.14
2022-11-24T22:41:19.116Z,6.08
2022-11-24T22:44:04.056Z,6.17
2022-11-24T22:46:48.776Z,6.11
2022-11-24T22:49:33.477Z,6.03
2022-11-24T22:52:18.126Z,6.00
2022-11-24T22:55:02.734Z,5.85
2022-11-24T22:57:48.389Z,5.90
2022-11-24T23:00:33.797Z,5.89
2022-11-24T23:03:18.927Z,6.09
2022-11-24T23:06:04.173Z,6.21
2022-11-24T23:08:48.859Z,6.19
2022-11-24T23:11:37.764Z,6.16
2022-11-24T23:14:23.324Z,6.20
2022-11-24T23:17:07.985Z,6.17
2022-11-24T23:19:52.753Z,6.09
2022-11-24T23:22:37.427Z,6.00
2022-11-24T23:25:22.426Z,5.93
2022-11-24T23:28:07.398Z,5.85
2022-11-24T23:30:52.243Z,5.79
2022-11-24T23:33:36.884Z,5.72
2022-11-24T23:36:21.814Z,5.67
2022-11-24T23:39:06.602Z,5.58
2022-11-24T23:41:51.302Z,5.53
2022-11-24T23:44:36.125Z,5.62
2022-11-24T23:47:21.283Z,5.65
2022-11-24T23:50:06.044Z,5.69
2022-11-24T23:52:50.788Z,5.64
2022-11-24T23:55:35.425Z,5.65
2022-11-24T23:58:20.059Z,5.74
